Stations météo

réclame
Mon MeteoGroup
Nordkoster, Suède (2500): Température de l'air: 08.08.2018 08:00:00 - 14.08.2018 08:00:00 (CEST)Nordkoster, Suède (2500): Vitesse du vent & gusts: 08.08.2018 08:00:00 - 14.08.2018 08:00:00 (CEST)Nordkoster, Suède (2500): Direction du vent: 08.08.2018 08:00:00 - 14.08.2018 08:00:00 (CEST)Nordkoster, Suède (2500): reduced air pressure: 08.08.2018 08:00:00 - 14.08.2018 08:00:00 (CEST)Nordkoster, Suède (2500): visibility: 08.08.2018 08:00:00 - 14.08.2018 08:00:00 (CEST)Nordkoster, Suède (2500): Quantités de précipitations: 08.08.2018 08:00:00 - 14.08.2018 08:00:00 (CEST)
Date & Time tt [°C] ff [km/h] ff [knt] fx [km/h] fx [knt] dd ppp [hPa] vv [km] rr [mm]
14.08.2018 08:00:00 15,0 10 5 16 9 ENE 1007,7 50 0,0
14.08.2018 07:00:00 15,2 11 6 19 10 E 1007,8 50 0,0
14.08.2018 06:00:00 15,2 11 6 19 10 ENE 1007,7 50 0,0
14.08.2018 05:00:00 15,8 12 6 16 9 ENE 1007,5 50 0,0
14.08.2018 04:00:00 15,5 14 7 19 11 E 1007,8 50 0,0
14.08.2018 03:00:00 16,7 14 8 19 11 E 1007,9 50 0,0
14.08.2018 02:00:00 16,6 13 7 21 11 E 1008,1 50 0,0
14.08.2018 01:00:00 16,5 14 7 19 10 E 1008,3 50 0,0
14.08.2018 00:00:00 16,2 14 8 18 10 E 1008,4 50 0,0
13.08.2018 23:00:00 16,5 11 6 16 9 E 1008,3 50 0,0
13.08.2018 22:00:00 17,4 12 6 16 8 E 1008,5 50 0,0
13.08.2018 21:00:00 18,6 9 5 12 7 E 1008,5 50 0,0
13.08.2018 20:00:00 19,3 8 5 19 10 NNW 1008,3 50 0,0
13.08.2018 19:00:00 19,8 11 6 20 11 NW 1008,3 50 0,0
13.08.2018 18:00:00 19,3 14 7 23 12 NW 1008,6 50 0,0
13.08.2018 17:00:00 19,8 17 9 24 13 WNW 1009,1 31 0,0
13.08.2018 16:00:00 19,8 19 10 27 15 WNW 1009,3 40 0,0
13.08.2018 15:00:00 20,0 16 9 26 14 WNW 1009,6 40 0,0
13.08.2018 14:00:00 19,3 19 11 29 16 NW 1009,8 39 0,0
13.08.2018 13:00:00 18,9 16 9 23 12 WNW 1010,4 37 0,0
13.08.2018 12:00:00 18,2 16 9 24 13 WNW 1010,7 38 0,0
13.08.2018 11:00:00 18,0 6 3 14 8 ENE 1010,9 45 0,0
13.08.2018 10:00:00 16,0 10 6 16 9 E 1010,9 44 0,0
13.08.2018 09:00:00 15,7 9 5 13 7 ENE 1011,0 49 0,0
13.08.2018 08:00:00 14,8 8 4 10 5 E 1010,8 48 0,0
13.08.2018 07:00:00 12,9 7 4 10 5 E 1010,6 50 0,0
13.08.2018 06:00:00 11,6 9 5 13 7 ENE 1010,8 50 0,0
13.08.2018 05:00:00 11,9 6 4 10 5 ESE 1010,7 50 0,0
13.08.2018 04:00:00 12,1 6 4 13 7 E 1010,8 50 0,0
13.08.2018 03:00:00 12,5 7 4 12 7 E 1010,7 50 0,0
13.08.2018 02:00:00 13,4 7 4 10 5 E 1010,6 50 0,0
13.08.2018 01:00:00 13,7 7 4 11 6 E 1010,9 50 0,0
13.08.2018 00:00:00 14,5 7 4 10 5 E 1010,8 50 0,0
12.08.2018 23:00:00 15,2 8 4 14 8 W 1010,7 50 0,0
12.08.2018 22:00:00 15,3 10 5 17 9 W 1010,6 50 0,0
12.08.2018 21:00:00 15,9 9 5 25 13 W 1010,7 50 0,0
12.08.2018 20:00:00 17,2 4 2 11 6 NNW 1010,7 50 0,0
12.08.2018 19:00:00 17,1 6 3 15 8 NNE 1010,3 43 0,0
12.08.2018 18:00:00 18,1 9 5 20 11 NNW 1010,5 43 0,0
12.08.2018 17:00:00 16,9 14 8 23 13 E 1010,5 45 0,0
12.08.2018 16:00:00 17,0 16 9 27 14 NE 1010,6 39 0,0
12.08.2018 15:00:00 17,1 18 10 36 20 N 1010,4 35 0,0
12.08.2018 14:00:00 17,2 18 10 40 22 N 1010,4 46 0,0
12.08.2018 13:00:00 16,0 22 12 38 21 N 1010,1 46 0,0
12.08.2018 12:00:00 15,9 22 12 36 20 N 1009,8 46 0,0
12.08.2018 11:00:00 16,3 21 12 36 19 NNW 1009,3 39 0,0
12.08.2018 10:00:00 15,5 16 9 31 17 NNW 1009,2 50 0,0
12.08.2018 09:00:00 15,2 17 9 26 14 NNW 1008,8 45 0,0
12.08.2018 08:00:00 14,6 9 5 15 8 N 1008,8 46 0,0
12.08.2018 07:00:00 13,5 6 4 14 8 N 1008,6 50 0,0
12.08.2018 06:00:00 12,2 4 2 20 11 E 1008,3 50 0,0
12.08.2018 05:00:00 13,2 18 10 23 12 E 1008,2 49 0,0
12.08.2018 04:00:00 14,1 0 0 5 3 N 1008,5 47 0,0
12.08.2018 03:00:00 13,6 0 0 9 5 N 1008,5 50 0,0
12.08.2018 02:00:00 13,6 10 6 15 8 NNE 1009,0 50 0,0
12.08.2018 01:00:00 13,8 9 5 15 8 NE 1009,2 44 0,0
12.08.2018 00:00:00 13,8 6 3 15 8 NNE 1009,4 50 0,0
11.08.2018 23:00:00 14,0 10 6 17 9 NNW 1009,6 50 0,0
11.08.2018 22:00:00 13,4 8 4 19 10 NNE 1009,8 50 0,1
11.08.2018 21:00:00 13,8 11 6 19 10 N 1009,8 17 0,2
11.08.2018 20:00:00 14,9 11 6 19 10 NNE 1009,9 50 0,0
11.08.2018 19:00:00 15,2 8 5 14 8 N 1010,2 49 0,0
11.08.2018 18:00:00 15,0 9 5 18 10 NE 1010,4 50 0,0
11.08.2018 17:00:00 14,9 6 3 19 10 N 1010,8 50 0,0
11.08.2018 16:00:00 14,6 8 5 18 10 NE 1011,6 50 0,0
11.08.2018 15:00:00 14,5 13 7 18 10 E 1011,9 49 0,1
11.08.2018 14:00:00 14,1 8 4 16 8 E 1012,4 22 0,2
11.08.2018 13:00:00 14,1 6 3 18 10 SW 1013,0 13 0,7
11.08.2018 12:00:00 15,2 16 9 25 14 S 1013,5 22 0,0
11.08.2018 11:00:00 16,8 16 9 22 12 SSW 1013,5 45 0,0
11.08.2018 10:00:00 16,5 16 9 26 14 SW 1013,6 43 0,0
11.08.2018 09:00:00 16,8 17 9 26 14 SW 1013,5 34 0,0
11.08.2018 08:00:00 16,3 16 9 27 15 SW 1013,2 37 0,0
11.08.2018 07:00:00 15,7 19 10 28 15 SW 1013,4 47 0,0
11.08.2018 06:00:00 15,1 19 11 33 18 WSW 1013,5 35 0,0
11.08.2018 05:00:00 15,4 23 12 39 21 WSW 1013,4 28 0,0
11.08.2018 04:00:00 15,6 29 16 46 25 WSW 1013,3 27 0,0
11.08.2018 03:00:00 15,8 32 17 50 27 WSW 1013,0 30 0,0
11.08.2018 02:00:00 15,9 30 16 51 28 WSW 1012,9 27 0,0
11.08.2018 01:00:00 16,2 35 19 56 30 WSW 1012,4 23 0,0
11.08.2018 00:00:00 16,6 37 20 56 30 WSW 1011,9 24 0,0
10.08.2018 23:00:00 16,9 41 22 61 33 WSW 1011,3 22 0,0
10.08.2018 22:00:00 16,7 35 19 69 37 SW 1011,0 13 0,0
10.08.2018 21:00:00 16,9 45 24 72 39 SW 1010,5 14 0,0
10.08.2018 20:00:00 17,1 46 25 69 37 SW 1009,6 13 0,0
10.08.2018 19:00:00 17,3 48 26 80 43 SW 1008,8 11 0,0
10.08.2018 18:00:00 17,7 50 27 79 43 SW 1007,6 11 0,0
10.08.2018 17:00:00 18,4 49 27 82 45 SW 1006,5 13 0,0
10.08.2018 16:00:00 18,3 55 30 97 53 SW 1004,6 15 0,0
10.08.2018 15:00:00 18,0 60 32 96 52 SW 1002,9 14 0,0
10.08.2018 14:00:00 17,3 71 38 101 54 SSW 1001,0 11 0,0
10.08.2018 13:00:00 17,5 73 40 101 55 SSW 998,9 9 0,0
10.08.2018 12:00:00 19,0 59 32 92 50 SSE 995,1 10 0,0
10.08.2018 11:00:00 19,1 58 31 82 44 S 996,3 9 0,1
10.08.2018 10:00:00 20,1 40 21 54 29 SSE 998,3 24 0,0
10.08.2018 09:00:00 19,6 26 14 44 24 ESE 999,3 19 0,0
10.08.2018 08:00:00 18,6 27 15 41 22 ESE 1000,2 26 0,0
10.08.2018 07:00:00 18,2 28 15 47 25 ESE 1001,2 25 0,0
10.08.2018 06:00:00 16,7 23 12 37 20 E 1001,9 33 0,0
10.08.2018 05:00:00 16,2 27 15 38 20 E 1002,8 45 0,0
10.08.2018 04:00:00 15,9 29 16 44 24 ENE 1004,8 44 0,2
10.08.2018 03:00:00 15,5 24 13 33 18 ENE 1007,1 16 4,3
10.08.2018 02:00:00 15,9 16 8 23 12 ENE 1008,9 8 2,8
10.08.2018 01:00:00 17,2 13 7 22 12 NE 1009,9 38 0,0
10.08.2018 00:00:00 17,2 8 4 11 6 ENE 1010,5 32 0,0
09.08.2018 23:00:00 17,0 6 3 9 5 NE 1011,1 41 0,0
09.08.2018 22:00:00 16,9 4 2 7 4 ESE 1012,2 37 0,0
09.08.2018 21:00:00 17,9 6 3 14 8 SSW 1012,8 38 0,0
09.08.2018 20:00:00 18,6 12 6 20 11 WSW 1013,6 41 -
09.08.2018 19:00:00 19,8 13 7 27 14 SW 1013,8 39 -
09.08.2018 18:00:00 20,4 18 10 27 14 SW 1014,3 38 -
09.08.2018 17:00:00 20,9 18 10 33 18 SW 1014,3 35 -
09.08.2018 16:00:00 21,0 23 12 40 22 SW 1014,5 25 -
09.08.2018 15:00:00 20,4 27 15 - - SW 1014,5 31 -
09.08.2018 14:00:00 - - - - - - - - -
09.08.2018 13:00:00 - - - - - - - - -
09.08.2018 12:00:00 - - - - - - - - -
09.08.2018 11:00:00 - - - - - - - - -
09.08.2018 10:00:00 - - - - - - - - -
09.08.2018 09:00:00 - - - - - - - - -
09.08.2018 08:00:00 - - - - - - - - -
09.08.2018 07:00:00 - - - - - - - - -
09.08.2018 06:00:00 - - - - - - - - -
09.08.2018 05:00:00 17,9 26 14 45 25 SW 1010,0 18 0,0
09.08.2018 04:00:00 18,3 24 13 39 21 SW 1009,5 15 0,0
09.08.2018 03:00:00 18,9 23 13 36 19 SW 1009,5 10 0,0
09.08.2018 02:00:00 19,1 24 13 37 20 SSW 1009,1 7 0,0
09.08.2018 01:00:00 19,7 25 14 35 19 SSW 1008,9 7 0,0
09.08.2018 00:00:00 19,9 25 14 39 21 SW 1008,3 8 0,0
08.08.2018 23:00:00 20,1 19 10 26 14 S 1007,8 13 0,0
08.08.2018 22:00:00 19,9 8 5 29 15 SSW 1007,5 12 0,0
08.08.2018 21:00:00 20,9 23 12 36 20 SSW 1007,4 22 0,0
08.08.2018 20:00:00 21,3 19 10 35 19 S 1006,9 22 0,0
08.08.2018 19:00:00 21,4 26 14 41 22 S 1006,6 20 0,0
08.08.2018 18:00:00 20,9 35 19 46 25 S 1007,0 12 0,0
08.08.2018 17:00:00 22,4 16 9 31 17 S 1005,8 23 0,0
08.08.2018 16:00:00 24,5 22 12 31 17 SSE 1005,9 31 0,0
08.08.2018 15:00:00 22,1 16 8 26 14 E 1005,9 34 0,2
08.08.2018 14:00:00 20,5 13 7 19 10 ENE 1007,2 27 0,1
08.08.2018 13:00:00 20,6 4 2 27 15 NNE 1007,2 30 0,5
08.08.2018 12:00:00 23,7 5 3 18 10 NNW 1006,7 39 0,0
08.08.2018 11:00:00 21,8 6 4 16 9 E 1006,9 32 0,0
08.08.2018 10:00:00 19,6 7 4 14 7 N 1007,1 32 0,7
08.08.2018 09:00:00 22,6 12 6 23 12 S 1007,7 50 0,0
08.08.2018 08:00:00 22,6 13 7 25 13 ESE 1006,5 50 0,0

tt = Température de l'air
ff = Vitesse du vent
fx = gusts
dd = Direction du vent
ppp = reduced air pressure
vv = visibility
rr = Quantités de précipitations

stations d'obs. à proximité